Time;durP1;ratioP1;P1;durP2;ratioP2;P2;SDS_P1;SDS_P2;PMS_P1;PMS_P2;Temp;Humidity;BMP_temperature;BMP_pressure;BME280_temperature;BME280_humidity;BME280_pressure;Samples;Min_cycle;Max_cycle;Signal;HPM_P1;HPM_P2
2021/08/14 00:01:43;;;;;;;8.00;5.47;;;;;;;19.53;59.07;99720.97;1726891;81;20950;-67
2021/08/14 00:04:11;;;;;;;7.42;5.40;;;;;;;19.56;59.07;99712.76;1724358;81;20957;-67
2021/08/14 00:06:37;;;;;;;11.80;5.83;;;;;;;19.59;59.13;99721.77;1722057;81;21146;-67
2021/08/14 00:09:04;;;;;;;11.78;5.17;;;;;;;19.61;59.14;99716.70;1723860;81;20964;-67
2021/08/14 00:11:30;;;;;;;6.25;5.37;;;;;;;19.63;59.15;99707.28;1730779;81;20918;-67
2021/08/14 00:13:57;;;;;;;6.53;5.60;;;;;;;19.65;59.15;99707.99;1727590;81;20954;-67
2021/08/14 00:16:24;;;;;;;11.00;6.17;;;;;;;19.67;59.11;99708.74;1721112;81;20934;-67
2021/08/14 00:18:50;;;;;;;9.05;5.47;;;;;;;19.68;59.10;99714.38;1727752;81;21065;-66
2021/08/14 00:21:17;;;;;;;10.75;5.80;;;;;;;19.69;59.11;99712.11;1726415;81;20942;-67
2021/08/14 00:23:43;;;;;;;10.20;5.17;;;;;;;19.70;59.14;99711.13;1731930;81;21554;-66
2021/08/14 00:26:10;;;;;;;7.97;5.20;;;;;;;19.70;59.10;99708.48;1730309;81;21511;-67
2021/08/14 00:28:37;;;;;;;6.67;5.40;;;;;;;19.71;59.11;99706.17;1728470;81;20997;-66
2021/08/14 00:31:03;;;;;;;6.60;4.87;;;;;;;19.71;59.13;99703.52;1726411;81;21049;-67
2021/08/14 00:33:30;;;;;;;15.58;5.78;;;;;;;19.69;59.10;99696.22;1723896;81;20933;-67
2021/08/14 00:35:57;;;;;;;7.50;6.05;;;;;;;19.67;59.12;99700.80;1724895;81;20867;-66
2021/08/14 00:38:23;;;;;;;10.78;5.92;;;;;;;19.62;59.11;99695.02;1730825;81;21477;-67
2021/08/14 00:40:50;;;;;;;8.48;5.83;;;;;;;19.58;59.14;99693.61;1728060;81;21497;-67
2021/08/14 00:43:16;;;;;;;5.83;5.22;;;;;;;19.52;59.15;99692.33;1732229;81;21118;-67
2021/08/14 00:45:44;;;;;;;7.25;6.05;;;;;;;19.44;59.13;99692.13;1734578;81;20933;-66
2021/08/14 00:48:11;;;;;;;8.55;5.67;;;;;;;19.36;59.19;99687.48;1715080;82;21018;-67
2021/08/14 00:50:38;;;;;;;10.23;6.60;;;;;;;19.27;59.25;99694.88;1729434;81;20993;-66
2021/08/14 00:53:05;;;;;;;;;;;;;;;19.20;59.29;99690.56;1731118;81;21460;-67
2021/08/14 00:55:32;;;;;;;6.37;5.67;;;;;;;19.15;59.42;99701.18;1724433;81;20489;-67
2021/08/14 00:57:58;;;;;;;9.93;5.72;;;;;;;19.07;59.38;99699.66;1727397;81;20941;-67
2021/08/14 01:00:25;;;;;;;11.57;6.12;;;;;;;18.99;59.43;99695.85;1727324;81;20959;-67
2021/08/14 01:02:53;;;;;;;;;;;;;;;18.94;59.49;99691.91;1731222;81;21009;-67
2021/08/14 01:05:19;;;;;;;8.58;5.72;;;;;;;18.89;59.64;99690.95;1730401;81;20092;-66
2021/08/14 01:07:49;;;;;;;8.68;6.28;;;;;;;18.84;59.64;99693.12;1726146;82;21118;-67
2021/08/14 01:10:15;;;;;;;16.12;6.33;;;;;;;18.81;59.72;99692.06;1725698;81;21025;-66
2021/08/14 01:12:42;;;;;;;8.48;6.33;;;;;;;18.78;59.76;99700.25;1726891;81;20918;-67
2021/08/14 01:15:09;;;;;;;9.78;6.15;;;;;;;18.62;59.82;99678.63;1729833;81;20995;-67
2021/08/14 01:17:37;;;;;;;11.22;6.22;;;;;;;18.73;59.83;99699.75;1725136;81;21468;-66
2021/08/14 01:20:08;;;;;;;8.25;6.25;;;;;;;18.70;59.91;99703.97;1732062;81;21294;-67
2021/08/14 01:22:35;;;;;;;8.45;5.97;;;;;;;18.67;59.98;99711.67;1730325;81;20882;-67
2021/08/14 01:25:08;;;;;;;8.63;6.17;;;;;;;18.65;60.06;99707.47;1731524;81;21011;-67
2021/08/14 01:27:36;;;;;;;8.70;6.60;;;;;;;18.60;60.10;99712.28;1732395;81;20914;-67
2021/08/14 01:30:05;;;;;;;11.95;6.45;;;;;;;18.55;60.19;99714.83;1726267;81;21504;-66
2021/08/14 01:32:33;;;;;;;13.05;7.17;;;;;;;18.51;60.24;99706.80;1701012;81;21016;-67
2021/08/14 01:35:00;;;;;;;10.43;6.10;;;;;;;18.46;60.28;99705.00;1727976;81;20913;-67
2021/08/14 01:37:31;;;;;;;6.97;5.80;;;;;;;18.41;60.37;99695.27;1726206;81;20894;-67
2021/08/14 01:39:58;;;;;;;6.70;5.85;;;;;;;18.38;60.42;99694.69;1725824;81;20939;-67
2021/08/14 01:42:25;;;;;;;8.55;6.47;;;;;;;18.35;60.45;99690.48;1734026;81;20971;-67
2021/08/14 01:44:53;;;;;;;8.43;5.55;;;;;;;18.34;60.52;99702.00;1724048;81;21028;-67
2021/08/14 01:47:21;;;;;;;11.20;6.42;;;;;;;18.31;60.60;99695.64;1707926;82;21071;-67
2021/08/14 01:49:47;;;;;;;9.23;6.40;;;;;;;18.28;60.63;99703.81;1740888;81;20977;-67
2021/08/14 01:52:16;;;;;;;13.53;5.62;;;;;;;18.25;60.68;99706.70;1703795;82;20943;-67
2021/08/14 01:54:43;;;;;;;9.45;5.70;;;;;;;18.21;60.79;99703.96;1734557;81;21436;-66
2021/08/14 01:57:10;;;;;;;9.65;6.30;;;;;;;18.16;60.85;99716.69;1729654;81;21836;-67
2021/08/14 01:59:37;;;;;;;8.25;6.05;;;;;;;18.07;60.90;99708.53;1728067;81;27399;-67
2021/08/14 02:02:04;;;;;;;8.88;5.55;;;;;;;18.02;61.00;99719.93;1733142;81;20962;-66
2021/08/14 02:04:30;;;;;;;8.15;6.00;;;;;;;17.97;61.06;99718.13;1729806;81;20920;-67
2021/08/14 02:06:58;;;;;;;7.22;5.97;;;;;;;17.91;61.15;99726.53;1738202;81;20920;-67
2021/08/14 02:09:24;;;;;;;;;;;;;;;17.87;61.28;99738.31;1734393;81;21101;-67
2021/08/14 02:11:51;;;;;;;8.88;6.37;;;;;;;17.82;61.50;99737.81;1728862;81;20253;-67
2021/08/14 02:14:17;;;;;;;9.33;6.80;;;;;;;17.74;61.49;99741.49;1731189;81;21447;-67
2021/08/14 02:16:44;;;;;;;7.25;6.10;;;;;;;17.68;61.59;99739.67;1726678;82;20923;-67
2021/08/14 02:19:11;;;;;;;7.50;5.85;;;;;;;17.63;61.75;99748.91;1722737;82;21458;-66
2021/08/14 02:21:38;;;;;;;16.23;7.25;;;;;;;17.61;62.02;99738.45;1727187;81;22330;-67
2021/08/14 02:24:04;;;;;;;9.40;6.50;;;;;;;17.59;62.11;99741.70;1725445;81;21476;-66
2021/08/14 02:26:31;;;;;;;8.73;6.70;;;;;;;17.58;62.48;99740.00;1721486;82;20998;-67
2021/08/14 02:28:58;;;;;;;6.97;6.27;;;;;;;17.58;62.74;99733.89;1723268;81;20895;-67
2021/08/14 02:31:24;;;;;;;9.50;5.80;;;;;;;17.54;62.92;99731.97;1728800;81;20966;-67
2021/08/14 02:33:53;;;;;;;9.28;7.17;;;;;;;17.54;63.00;99746.49;1727716;81;21140;-67
2021/08/14 02:36:20;;;;;;;8.23;5.90;;;;;;;17.53;63.06;99742.63;1723288;81;20939;-67
2021/08/14 02:38:46;;;;;;;8.73;6.92;;;;;;;17.49;63.23;99749.95;1726759;82;20909;-67
2021/08/14 02:41:13;;;;;;;8.67;5.60;;;;;;;17.44;63.43;99746.81;1730862;82;20964;-67
2021/08/14 02:43:40;;;;;;;11.22;6.10;;;;;;;17.40;63.55;99754.61;1725951;81;20945;-67
2021/08/14 02:46:06;;;;;;;9.07;5.60;;;;;;;17.36;63.64;99749.19;1729051;82;21051;-67
2021/08/14 02:48:33;;;;;;;9.38;5.03;;;;;;;17.33;63.74;99754.70;1726857;82;21181;-67
2021/08/14 02:51:00;;;;;;;8.13;4.35;;;;;;;17.30;64.09;99749.65;1726321;81;21039;-67
2021/08/14 02:53:27;;;;;;;9.15;5.08;;;;;;;17.26;64.00;99756.13;1699367;83;20891;-67
2021/08/14 02:55:54;;;;;;;5.33;3.92;;;;;;;17.21;64.07;99754.66;1691220;82;21531;-67
2021/08/14 02:58:20;;;;;;;7.55;4.12;;;;;;;17.18;64.19;99749.61;1702947;82;21483;-67
2021/08/14 03:00:47;;;;;;;7.23;3.70;;;;;;;17.16;64.16;99755.95;1701970;83;20914;-66
2021/08/14 03:03:13;;;;;;;4.27;3.57;;;;;;;17.11;64.25;99766.86;1701430;82;20912;-67
2021/08/14 03:05:41;;;;;;;7.40;3.80;;;;;;;17.02;64.33;99760.92;1697628;82;20954;-67
2021/08/14 03:08:08;;;;;;;;;;;;;;;17.02;64.33;99760.92;1708927;82;21365;-67
2021/08/14 03:10:39;;;;;;;6.47;3.92;;;;;;;17.00;64.78;99760.22;1697943;82;20995;-67
2021/08/14 03:13:07;;;;;;;5.70;3.75;;;;;;;16.96;64.72;99754.78;1700424;83;20903;-67
2021/08/14 03:15:33;;;;;;;;;;;;;;;16.92;64.76;99758.61;1732940;81;21116;-67
2021/08/14 03:18:00;;;;;;;4.80;3.35;;;;;;;16.91;65.08;99770.09;1705271;82;20087;-67
2021/08/14 03:20:28;;;;;;;6.15;3.65;;;;;;;16.87;64.90;99771.28;1728857;81;20925;-67
2021/08/14 03:22:54;;;;;;;5.22;3.42;;;;;;;16.85;65.10;99769.23;1723760;82;21871;-66
2021/08/14 03:25:21;;;;;;;5.93;3.60;;;;;;;16.83;65.06;99768.01;1723663;81;21521;-67
2021/08/14 03:27:48;;;;;;;5.13;3.20;;;;;;;16.83;65.03;99773.77;1724529;81;20930;-67
2021/08/14 03:30:14;;;;;;;4.97;3.25;;;;;;;16.83;65.03;99773.77;1726370;81;21635;-67
2021/08/14 03:32:41;;;;;;;6.45;3.20;;;;;;;16.82;65.36;99768.14;1726056;81;20953;-67
2021/08/14 03:35:09;;;;;;;8.10;4.10;;;;;;;16.83;66.36;99772.45;1726692;81;21038;-67
2021/08/14 03:37:35;;;;;;;5.22;3.17;;;;;;;16.83;65.45;99765.37;1724165;81;20888;-66
2021/08/14 03:40:02;;;;;;;8.23;3.10;;;;;;;16.85;65.54;99773.19;1723510;81;20947;-67
2021/08/14 03:42:29;;;;;;;6.00;3.60;;;;;;;16.76;65.57;99754.44;1732364;82;21358;-67
2021/08/14 03:44:55;;;;;;;17.63;5.63;;;;;;;16.95;65.88;99784.76;1722971;82;21440;-66
2021/08/14 03:47:22;;;;;;;18.12;4.90;;;;;;;17.12;65.83;99778.25;1724287;81;21708;-67
2021/08/14 03:49:48;;;;;;;14.70;4.23;;;;;;;17.35;65.90;99780.50;1726643;82;21498;-67
2021/08/14 03:52:15;;;;;;;10.95;3.83;;;;;;;17.38;65.60;99786.87;1725939;82;21311;-66
2021/08/14 03:54:43;;;;;;;5.53;3.43;;;;;;;17.33;65.57;99786.36;1729553;82;21015;-67
2021/08/14 03:57:10;;;;;;;6.65;3.55;;;;;;;17.29;65.68;99779.64;1719723;81;20912;-68
2021/08/14 03:59:36;;;;;;;14.05;3.33;;;;;;;17.30;65.80;99778.67;1727287;81;21057;-67
2021/08/14 04:02:03;;;;;;;12.65;3.50;;;;;;;17.38;65.88;99786.87;1726091;81;21702;-67
2021/08/14 04:04:30;;;;;;;44.55;6.22;;;;;;;17.45;65.86;99793.39;1724244;81;26462;-67
2021/08/14 04:06:57;;;;;;;33.10;6.45;;;;;;;17.51;65.89;99792.92;1724318;82;21646;-67
2021/08/14 04:09:23;;;;;;;25.70;4.80;;;;;;;17.56;65.84;99790.78;1719188;81;21037;-67
2021/08/14 04:11:50;;;;;;;18.05;4.83;;;;;;;17.59;65.94;99783.95;1721624;81;21000;-67
2021/08/14 04:14:16;;;;;;;12.98;4.05;;;;;;;17.73;66.04;99782.04;1727883;81;20940;-68
2021/08/14 04:16:43;;;;;;;11.20;4.00;;;;;;;17.84;65.93;99782.96;1730892;81;20934;-68
2021/08/14 04:19:10;;;;;;;17.05;4.20;;;;;;;17.89;65.93;99779.46;1737810;81;20957;-67
2021/08/14 04:21:36;;;;;;;8.73;3.37;;;;;;;17.98;66.03;99783.23;1730183;81;21116;-68
2021/08/14 04:24:03;;;;;;;7.47;3.40;;;;;;;18.14;66.08;99782.02;1732056;81;21861;-67
2021/08/14 04:26:30;;;;;;;13.75;3.72;;;;;;;18.37;66.20;99777.09;1733998;81;21595;-68
2021/08/14 04:28:58;;;;;;;8.83;3.22;;;;;;;18.73;66.11;99779.93;1732583;81;20978;-67
2021/08/14 04:31:24;;;;;;;;;;;;;;;19.10;65.90;99786.73;1733783;81;20950;-67
2021/08/14 04:33:51;;;;;;;6.80;3.20;;;;;;;19.36;65.81;99777.49;1731276;81;20109;-68
2021/08/14 04:36:17;;;;;;;5.50;2.65;;;;;;;19.44;65.54;99777.70;1727210;81;22008;-68
2021/08/14 04:38:44;;;;;;;11.43;3.27;;;;;;;19.39;65.39;99778.56;1727474;81;21013;-67
2021/08/14 04:41:10;;;;;;;8.95;3.08;;;;;;;19.28;65.26;99779.94;1727659;81;21069;-68
2021/08/14 04:43:37;;;;;;;9.13;3.15;;;;;;;19.11;65.24;99780.48;1733219;81;20916;-67
2021/08/14 04:46:04;;;;;;;6.53;3.00;;;;;;;18.93;65.34;99777.52;1728680;81;20981;-67
2021/08/14 04:48:30;;;;;;;7.05;3.27;;;;;;;18.85;65.51;99780.80;1736945;81;21140;-67
2021/08/14 04:50:57;;;;;;;10.63;3.67;;;;;;;18.87;65.68;99789.44;1732059;81;20989;-67
2021/08/14 04:53:23;;;;;;;7.70;2.55;;;;;;;18.94;65.73;99790.63;1730214;81;21439;-68
2021/08/14 04:55:50;;;;;;;4.85;2.75;;;;;;;19.13;65.78;99789.12;1726206;81;21535;-68
2021/08/14 04:58:16;;;;;;;7.62;3.12;;;;;;;19.28;65.54;99785.23;1725694;81;20957;-67
2021/08/14 05:00:43;;;;;;;13.38;3.67;;;;;;;19.39;65.55;99788.31;1731820;81;21120;-68
2021/08/14 05:03:10;;;;;;;13.98;4.17;;;;;;;19.56;65.58;99785.59;1732561;81;20934;-68
2021/08/14 05:05:36;;;;;;;10.13;3.05;;;;;;;19.73;65.31;99783.71;1728472;81;21437;-67
2021/08/14 05:08:03;;;;;;;10.98;3.17;;;;;;;19.78;65.15;99777.55;1729671;81;20914;-69
2021/08/14 05:10:41;;;;;;;5.33;3.00;;;;;;;19.81;65.25;99779.93;1731586;81;20890;-68
2021/08/14 05:13:08;;;;;;;7.50;3.42;;;;;;;19.85;65.21;99778.69;1734004;81;21101;-68
2021/08/14 05:15:35;;;;;;;10.75;2.98;;;;;;;19.92;65.34;99781.67;1725728;81;20958;-69
2021/08/14 05:18:01;;;;;;;15.35;3.62;;;;;;;20.06;65.11;99780.49;1727467;81;21590;-68
2021/08/14 05:20:28;;;;;;;8.65;2.87;;;;;;;20.07;65.09;99776.86;1726377;81;20932;-68
2021/08/14 05:22:55;;;;;;;10.53;3.50;;;;;;;20.21;65.19;99778.32;1731316;81;27268;-68
2021/08/14 05:25:21;;;;;;;5.97;2.75;;;;;;;20.39;64.85;99777.20;1729039;81;21061;-68
2021/08/14 05:27:48;;;;;;;6.42;2.98;;;;;;;20.52;65.04;99764.55;1730618;81;20965;-68
2021/08/14 05:30:15;;;;;;;7.92;3.05;;;;;;;20.74;64.73;99778.95;1730388;81;20917;-69
2021/08/14 05:32:42;;;;;;;14.68;3.27;;;;;;;20.89;64.82;99779.87;1730126;81;20898;-68
2021/08/14 05:35:09;;;;;;;10.48;3.90;;;;;;;20.83;64.25;99783.09;1728755;81;20926;-69
2021/08/14 05:37:35;;;;;;;;;;;;;;;20.65;64.16;99785.08;1728590;81;21071;-68
2021/08/14 05:40:02;;;;;;;11.90;2.70;;;;;;;20.54;64.33;99782.53;1726550;81;20113;-68
2021/08/14 05:42:28;;;;;;;9.33;2.95;;;;;;;20.37;64.19;99787.13;1733580;81;20914;-68
2021/08/14 05:44:55;;;;;;;;;;;;;;;20.29;64.34;99795.24;1728964;81;20989;-69
2021/08/14 05:47:22;;;;;;;7.65;2.58;;;;;;;20.18;64.15;99794.00;1730631;81;20211;-68
2021/08/14 05:49:49;;;;;;;6.67;2.70;;;;;;;20.00;64.21;99799.58;1728563;81;21444;-68
2021/08/14 05:52:16;;;;;;;6.65;2.83;;;;;;;19.80;64.35;99798.59;1726089;81;20926;-68
2021/08/14 05:54:42;;;;;;;10.82;2.58;;;;;;;19.78;64.57;99798.73;1727522;81;20983;-69
2021/08/14 05:57:09;;;;;;;17.95;3.60;;;;;;;19.76;64.46;99804.64;1730570;81;20918;-68
2021/08/14 05:59:36;;;;;;;12.25;3.15;;;;;;;19.71;64.40;99796.23;1728575;81;20923;-68
2021/08/14 06:02:03;;;;;;;10.03;3.27;;;;;;;19.58;64.40;99796.41;1702831;81;21163;-68
2021/08/14 06:04:31;;;;;;;9.83;3.52;;;;;;;19.58;64.40;99796.41;1704956;82;20947;-68
2021/08/14 06:06:58;;;;;;;10.93;3.25;;;;;;;19.59;64.57;99793.27;1728502;81;20983;-68
2021/08/14 06:09:25;;;;;;;8.48;3.27;;;;;;;19.56;64.70;99789.56;1734002;81;21485;-68
2021/08/14 06:11:54;;;;;;;;;;;;;;;19.50;64.59;99804.64;1731376;81;20910;-68
2021/08/14 06:14:21;;;;;;;8.65;3.65;;;;;;;19.48;64.88;99807.41;1725578;81;21868;-68
2021/08/14 06:16:48;;;;;;;17.42;3.72;;;;;;;19.61;64.93;99805.91;1696243;82;20956;-68
2021/08/14 06:19:15;;;;;;;;;;;;;;;19.71;65.00;99800.20;1711821;82;21471;-68
2021/08/14 06:21:42;;;;;;;21.68;3.62;;;;;;;19.80;64.91;99804.75;1709870;82;20073;-68
2021/08/14 06:24:10;;;;;;;21.95;4.58;;;;;;;19.81;64.80;99797.64;1709411;82;20948;-68
2021/08/14 06:26:39;;;;;;;28.17;3.65;;;;;;;19.84;64.88;99798.21;1712516;82;21064;-68
2021/08/14 06:29:05;;;;;;;15.78;3.58;;;;;;;19.97;64.88;99799.81;1712234;82;20897;-68
2021/08/14 06:31:32;;;;;;;9.85;3.05;;;;;;;20.10;64.82;99804.42;1712181;82;20916;-71
2021/08/14 06:34:01;;;;;;;13.53;4.08;;;;;;;20.31;64.75;99802.59;1707501;82;21072;-69
2021/08/14 06:36:29;;;;;;;22.77;4.05;;;;;;;20.78;65.07;99788.33;1708081;82;21031;-69
2021/08/14 06:38:56;;;;;;;41.45;4.20;;;;;;;21.39;65.04;99783.79;1710918;82;21874;-69
2021/08/14 06:41:23;;;;;;;10.35;3.35;;;;;;;21.83;64.39;99790.81;1710487;82;20975;-69
2021/08/14 06:43:50;;;;;;;;;;;;;;;21.74;63.34;99798.32;1712666;82;20952;-68
2021/08/14 06:46:19;;;;;;;9.40;3.05;;;;;;;21.74;63.31;99795.66;1690712;83;20093;-68
2021/08/14 06:48:47;;;;;;;12.60;3.22;;;;;;;21.97;63.83;99797.00;1711842;82;20932;-68
2021/08/14 06:51:14;;;;;;;14.90;3.52;;;;;;;22.22;63.46;99795.56;1708554;82;21047;-69
2021/08/14 06:53:41;;;;;;;;;;;;;;;22.37;62.75;99805.22;1714438;82;20944;-69
2021/08/14 06:56:08;;;;;;;8.78;3.15;;;;;;;22.36;62.67;99798.23;1710834;82;20110;-69
2021/08/14 06:58:34;;;;;;;12.93;3.42;;;;;;;22.42;62.47;99804.30;1710801;82;21032;-68
2021/08/14 07:01:01;;;;;;;10.15;3.27;;;;;;;22.49;62.30;99797.42;1709245;82;20914;-69
2021/08/14 07:03:28;;;;;;;10.48;3.20;;;;;;;22.46;61.88;99796.39;1714446;82;21318;-69
2021/08/14 07:05:54;;;;;;;20.70;3.60;;;;;;;22.53;62.01;99797.95;1705105;82;20956;-68
2021/08/14 07:08:21;;;;;;;12.78;3.37;;;;;;;22.51;61.63;99795.42;1711964;82;21458;-69
2021/08/14 07:10:47;;;;;;;9.80;3.22;;;;;;;22.69;61.69;99797.33;1710226;82;21494;-69
2021/08/14 07:13:14;;;;;;;23.10;4.30;;;;;;;22.99;61.55;99794.37;1711019;82;20951;-68
2021/08/14 07:15:41;;;;;;;20.52;3.65;;;;;;;23.22;61.30;99796.59;1712381;82;21443;-69
2021/08/14 07:18:08;;;;;;;25.32;5.15;;;;;;;23.51;60.74;99798.17;1725730;81;20986;-68
2021/08/14 07:20:34;;;;;;;10.63;3.47;;;;;;;23.75;60.84;99793.06;1729600;81;20982;-68
2021/08/14 07:23:01;;;;;;;16.45;3.52;;;;;;;23.87;59.64;99797.14;1731822;81;20874;-69
2021/08/14 07:25:27;;;;;;;15.28;3.22;;;;;;;23.98;60.00;99795.22;1727793;81;21494;-68
2021/08/14 07:27:54;;;;;;;12.80;3.37;;;;;;;24.14;59.66;99805.96;1727811;81;21032;-68
2021/08/14 07:30:20;;;;;;;52.48;5.35;;;;;;;24.30;59.27;99808.72;1730357;81;20914;-68
2021/08/14 07:32:47;;;;;;;16.00;3.50;;;;;;;24.40;59.07;99797.11;1729945;81;21477;-69
2021/08/14 07:35:14;;;;;;;18.67;3.37;;;;;;;24.37;58.15;99800.08;1728983;81;20962;-68
2021/08/14 07:37:50;;;;;;;;;;;;;;;24.03;57.84;99814.23;1728075;81;21569;-68
2021/08/14 07:40:20;;;;;;;20.37;3.67;;;;;;;23.57;57.75;99809.53;1729361;81;21895;-68
2021/08/14 07:42:47;;;;;;;12.95;3.62;;;;;;;23.28;57.82;99814.62;1725242;81;21524;-66
2021/08/14 07:45:17;;;;;;;15.65;3.75;;;;;;;23.09;57.74;99814.76;1727725;82;20940;-67
2021/08/14 07:47:45;;;;;;;22.37;4.55;;;;;;;22.93;57.69;99815.38;1732630;81;20929;-67
2021/08/14 07:50:14;;;;;;;18.20;3.42;;;;;;;23.06;57.92;99817.72;1727424;81;21028;-68
2021/08/14 07:52:48;;;;;;;8.70;3.35;;;;;;;23.17;57.43;99812.18;1725674;81;21511;-69
2021/08/14 07:55:15;;;;;;;12.80;4.35;;;;;;;22.91;56.27;99810.22;1727900;81;21076;-66
2021/08/14 07:57:44;;;;;;;16.35;3.75;;;;;;;22.41;56.78;99813.27;1734088;81;21001;-68
2021/08/14 08:00:15;;;;;;;13.80;3.75;;;;;;;22.22;56.87;99813.34;1731659;81;21108;-67
2021/08/14 08:02:42;;;;;;;18.75;4.22;;;;;;;22.20;57.16;99820.63;1726126;81;20981;-67
2021/08/14 08:05:11;;;;;;;;;;;;;;;22.28;56.87;99820.73;1731423;81;21048;-69
2021/08/14 08:07:40;;;;;;;13.68;3.52;;;;;;;22.22;56.83;99820.00;1727335;81;20096;-67
2021/08/14 08:10:08;;;;;;;12.73;3.72;;;;;;;22.25;56.73;99830.34;1732680;81;20954;-66
2021/08/14 08:12:36;;;;;;;11.45;3.45;;;;;;;22.24;56.51;99824.69;1730954;81;20946;-67
2021/08/14 08:15:07;;;;;;;19.37;4.15;;;;;;;22.45;57.06;99819.97;1727644;81;20950;-67
2021/08/14 08:17:33;;;;;;;10.78;3.77;;;;;;;22.92;57.06;99813.72;1732310;81;21076;-67
2021/08/14 08:20:01;;;;;;;14.70;3.47;;;;;;;23.20;56.12;99821.20;1732817;81;20908;-68
2021/08/14 08:22:28;;;;;;;11.85;3.65;;;;;;;23.16;56.03;99829.12;1715270;81;21472;-67
2021/08/14 08:24:55;;;;;;;10.00;3.52;;;;;;;23.03;55.65;99828.68;1733592;81;21401;-66
2021/08/14 08:27:22;;;;;;;12.43;3.10;;;;;;;22.90;55.46;99821.84;1731273;81;21689;-66
2021/08/14 08:29:50;;;;;;;12.85;3.65;;;;;;;23.09;56.03;99819.58;1728349;81;21905;-67
2021/08/14 08:32:16;;;;;;;32.73;3.85;;;;;;;23.32;55.26;99823.97;1730034;81;21426;-67
2021/08/14 08:34:43;;;;;;;13.48;3.25;;;;;;;23.28;55.43;99825.28;1727779;81;20973;-68
2021/08/14 08:37:10;;;;;;;13.38;3.75;;;;;;;23.58;55.60;99821.86;1730009;81;21511;-68
2021/08/14 08:39:37;;;;;;;11.33;3.30;;;;;;;23.53;54.85;99830.34;1729003;81;20890;-67
2021/08/14 08:42:08;;;;;;;13.10;3.77;;;;;;;23.35;54.50;99826.33;1730076;81;21131;-68
2021/08/14 08:44:35;;;;;;;11.88;3.62;;;;;;;23.39;54.83;99836.20;1727300;81;20950;-68
2021/08/14 08:47:05;;;;;;;11.60;3.45;;;;;;;23.45;54.46;99829.77;1724843;81;21120;-69
2021/08/14 08:49:33;;;;;;;8.58;3.37;;;;;;;23.08;53.71;99833.03;1705357;81;20945;-69
2021/08/14 08:52:00;;;;;;;14.25;3.80;;;;;;;22.85;54.16;99841.41;1729048;81;20958;-69
2021/08/14 08:54:27;;;;;;;13.10;3.42;;;;;;;22.89;54.29;99836.15;1731759;81;22213;-69
2021/08/14 08:56:53;;;;;;;12.68;3.45;;;;;;;22.51;53.56;99840.66;1725483;81;21815;-68
2021/08/14 08:59:20;;;;;;;12.35;3.27;;;;;;;22.48;53.97;99844.11;1724933;81;20989;-68
2021/08/14 09:01:47;;;;;;;16.23;4.00;;;;;;;22.58;53.88;99841.43;1730625;81;20886;-69
2021/08/14 09:04:25;;;;;;;;;;;;;;;22.48;53.62;99848.94;1709520;82;20949;-68
2021/08/14 09:06:53;;;;;;;12.73;3.98;;;;;;;22.41;53.04;99853.18;1735495;81;20504;-67
2021/08/14 09:09:32;;;;;;;14.75;3.15;;;;;;;22.29;53.53;99842.34;1731210;81;20902;-69
2021/08/14 09:12:06;;;;;;;14.47;3.65;;;;;;;22.40;53.52;99846.66;1727869;81;20899;-69
2021/08/14 09:14:50;;;;;;;26.93;4.37;;;;;;;22.56;53.49;99842.39;1727916;81;20948;-68
2021/08/14 09:17:16;;;;;;;24.25;3.92;;;;;;;22.88;53.70;99842.47;1720991;81;20904;-70
2021/08/14 09:19:43;;;;;;;;;;;;;;;23.25;53.38;99837.56;1715944;82;21112;-70
2021/08/14 09:22:20;;;;;;;22.85;3.95;;;;;;;23.36;51.92;99846.67;1711598;83;20504;-70
2021/08/14 09:24:47;;;;;;;14.23;3.65;;;;;;;23.33;52.66;99860.30;1713405;82;20942;-69
2021/08/14 09:27:16;;;;;;;16.70;3.00;;;;;;;23.51;52.81;99854.13;1715778;82;20919;-69
2021/08/14 09:29:44;;;;;;;15.15;2.92;;;;;;;;;;1714310;82;20917;-68
2021/08/14 09:32:14;;;;;;;7.62;3.17;;;;;;;23.76;52.11;99852.05;1714106;82;21137;-70
2021/08/14 09:34:49;;;;;;;15.98;3.35;;;;;;;23.54;51.15;99848.48;1713462;82;20916;-69
2021/08/14 09:37:18;;;;;;;22.13;2.92;;;;;;;23.41;51.58;99849.72;1714554;82;20882;-69
2021/08/14 09:40:09;;;;;;;24.25;4.25;;;;;;;23.64;51.54;99853.25;1692173;83;20924;-69
2021/08/14 09:42:52;;;;;;;35.00;4.87;;;;;;;23.87;51.47;99845.14;1714126;82;21498;-68
2021/08/14 09:45:19;;;;;;;12.05;2.80;;;;;;;23.92;50.92;99847.81;1714483;82;21966;-68
2021/08/14 09:47:58;;;;;;;15.88;3.75;;;;;;;23.73;50.58;99850.20;1712542;82;20941;-69
2021/08/14 09:50:35;;;;;;;11.25;3.20;;;;;;;23.54;50.41;99856.48;1690542;83;21366;-68
2021/08/14 09:53:18;;;;;;;18.42;3.70;;;;;;;23.58;50.89;99849.84;1717029;82;20911;-69
2021/08/14 09:55:50;;;;;;;9.73;3.25;;;;;;;23.94;50.80;99851.17;1714491;82;20916;-69
2021/08/14 09:58:20;;;;;;;14.60;3.80;;;;;;;23.92;49.18;99856.68;1693272;83;22259;-69
2021/08/14 10:00:49;;;;;;;14.30;3.47;;;;;;;23.34;49.61;99856.63;1712805;83;21470;-69
2021/08/14 10:03:25;;;;;;;13.68;3.33;;;;;;;23.40;50.38;99858.69;1716465;82;20916;-68
2021/08/14 10:05:54;;;;;;;8.88;3.27;;;;;;;23.78;50.16;99856.73;1713234;82;20927;-67
2021/08/14 10:08:36;;;;;;;9.70;3.02;;;;;;;23.79;49.63;99863.73;1696900;81;20908;-70
2021/08/14 10:11:11;;;;;;;8.95;3.10;;;;;;;23.50;49.12;99865.76;1712079;82;20956;-68
2021/08/14 10:13:50;;;;;;;12.68;4.08;;;;;;;23.15;49.44;99872.74;1722485;81;20966;-67
2021/08/14 10:16:19;;;;;;;17.62;3.77;;;;;;;22.55;49.25;99868.67;1690436;82;21225;-69
2021/08/14 10:18:49;;;;;;;;;;;;;;;22.43;49.67;99869.81;1728885;81;20918;-68
2021/08/14 10:21:20;;;;;;;7.67;2.70;;;;;;;22.31;48.91;99868.32;1733583;81;20127;-68
2021/08/14 10:23:46;;;;;;;10.93;3.33;;;;;;;21.92;48.80;99871.02;1728645;81;21011;-69
2021/08/14 10:26:18;;;;;;;16.70;3.40;;;;;;;21.65;49.00;99866.44;1728376;81;20930;-69
2021/08/14 10:28:54;;;;;;;15.70;3.52;;;;;;;21.81;49.59;99856.55;1726569;81;20922;-71
2021/08/14 10:31:35;;;;;;;12.43;3.10;;;;;;;22.21;49.49;99870.16;1733759;81;20922;-68
2021/08/14 10:34:19;;;;;;;11.35;2.87;;;;;;;22.40;49.34;99856.80;1733182;81;20966;-69
2021/08/14 10:36:47;;;;;;;23.77;3.65;;;;;;;22.50;48.68;99865.59;1738196;81;21051;-69
2021/08/14 10:39:32;;;;;;;13.78;3.50;;;;;;;22.43;49.05;99867.16;1736381;81;20910;-70
2021/08/14 10:42:02;;;;;;;10.00;2.87;;;;;;;22.58;49.00;99868.04;1731059;81;20987;-70
2021/08/14 10:44:42;;;;;;;10.58;2.90;;;;;;;22.71;48.74;99864.53;1726303;81;21007;-72
2021/08/14 10:47:40;;;;;;;25.08;3.85;;;;;;;22.95;48.79;99863.53;1731684;81;20907;-70
2021/08/14 10:50:06;;;;;;;12.93;3.47;;;;;;;23.03;48.76;99849.98;1705498;82;21009;-70
2021/08/14 10:52:35;;;;;;;13.65;3.62;;;;;;;23.17;48.87;99844.14;1700961;82;20915;-71
2021/08/14 10:55:09;;;;;;;8.48;2.87;;;;;;;23.46;48.86;99842.08;1701300;82;21058;-68
2021/08/14 10:57:45;;;;;;;9.50;3.83;;;;;;;23.67;48.40;99839.12;1736614;81;21082;-71
2021/08/14 11:00:23;;;;;;;8.23;2.53;;;;;;;23.68;48.37;99839.45;1732475;81;20908;-71
2021/08/14 11:02:59;;;;;;;13.45;3.37;;;;;;;23.55;48.17;99844.33;1730476;81;21029;-68
2021/08/14 11:05:26;;;;;;;13.08;3.05;;;;;;;23.60;48.27;99853.20;1713079;81;20949;-70
2021/08/14 11:07:55;;;;;;;12.00;3.62;;;;;;;23.52;47.84;99858.45;1707390;82;20999;-72
2021/08/14 11:10:41;;;;;;;15.70;3.67;;;;;;;23.26;47.69;99852.55;1727114;81;20953;-69
2021/08/14 11:13:33;;;;;;;9.65;2.62;;;;;;;23.09;48.00;99852.05;1716113;81;20993;-70
2021/08/14 11:16:00;;;;;;;22.45;3.62;;;;;;;22.82;47.07;99843.04;1729243;81;21077;-72
2021/08/14 11:18:54;;;;;;;12.60;3.30;;;;;;;22.63;47.82;99843.13;1692390;83;21443;-70
2021/08/14 11:21:43;;;;;;;16.30;2.90;;;;;;;22.75;47.83;99849.95;1714684;82;21522;-73
2021/08/14 11:24:36;;;;;;;18.35;3.60;;;;;;;22.83;48.09;99849.23;1700627;82;20895;-70
2021/08/14 11:27:00;;;;;;;10.58;2.98;;;;;;;22.87;48.01;99845.27;1699808;83;20987;-71
2021/08/14 11:29:28;;;;;;;13.90;3.20;;;;;;;23.03;48.34;99844.66;1651515;84;21033;-72
2021/08/14 11:31:56;;;;;;;9.23;2.65;;;;;;;23.14;47.98;99840.45;1675909;83;21349;-71
2021/08/14 11:34:24;;;;;;;7.42;2.77;;;;;;;23.03;47.68;99844.66;1716175;81;21446;-72
2021/08/14 11:36:59;;;;;;;8.20;3.47;;;;;;;22.89;48.11;99846.80;1698127;82;20962;-72
2021/08/14 11:39:31;;;;;;;13.78;3.67;;;;;;;22.94;48.00;99846.36;1697581;82;20906;-68
2021/08/14 11:41:58;;;;;;;14.25;2.62;;;;;;;22.79;48.17;99843.34;1694551;83;21008;-70